Oxford, Indiana
Current Conditions -  °F | °C
As of 8:54 PM on Saturday 25 Oct 2014 (Local Time) from KLAF Reporting Station
Clear Clear  
Wind Chill: 63°   Ceiling: Unl
Heat Index: 63°   Visibility: 10mi
Dew Point: 38°   Wind: 14mph
Humidity: 40%   Direction: 290°WNW
Pressure: 29.94"   Gusts: 23mph
Location:  40.52°N, 87.25°W
Report Text: KLAF 260054Z AUTO 29012G20KT 10SM CLR 17/03 A2994 RMK AO2 SLP136 T01720033 TSNO
Loading
Personal Weather Stations






























Interactive Weather Map New forecast layout! Learn more

10-Day Weather Forecast

Advertisements
Track Severe Weather on mobile